Skip Navigation Links Skip Navigation Links

Current Weather

Long Island Mac Arthur, Islip, N.Y.

For information only: do not use for flight planning or navigation.
Latest weather
Observation time Thursday, November 14, 2019 7:56 PM EST
Local time Thursday, November 14, 2019 8:11 PM EST
Flight conditions Visual Meteorological Conditions
Winds
Wind direction Southwest (220°)
Wind speed 8 mph
Visibility 10 mi.
Sky condition
Ceiling 15,000 ft. broken clouds
Cloud layer few clouds 3,200 ft.
Cloud layer broken clouds 15,000 ft.
Cloud layer broken clouds 25,000 ft.
Temperature 44°F
Dewpoint 36°F
Altimeter 30.29 in.Hg
Derived measurements
Relative humidity 73%
Wind chill 40°F
Density altitude -1216 ft.
Sea-level pressure 30.29 in.Hg
Remarks
Automated weather observing station with precipitation discriminator.
METAR KISP 150056Z 22007KT 10SM FEW032 BKN150 BKN250 07/02 A3029 RMK AO2 SLP257 T00670022

Settings

Location code

InnerDrive.Weather 4.0.6770.0 Release CLR 4.0.30319.42000
Copyright ©2018 Inner Drive Technology. All rights reserved. Portions Copyright ©1986-2018 David Braverman.

Find weather

Site navigation


Skip Navigation Links

Place info

Page info

PayPal - The safer, easier way to pay online!

Return home.

Copyright ©2019 Inner Drive Technology. Purveyors of fine, hand-crafted computer software. Page printed 2019-11-15T01:11:26 UTC.